createdAt,value
2023-03-22T00:00:33.865Z,33.11
2023-03-22T00:01:36.741Z,33.01
2023-03-22T00:02:38.725Z,33.03
2023-03-22T00:03:40.933Z,33.17
2023-03-22T00:04:43.275Z,33.23
2023-03-22T00:05:45.648Z,33.20
2023-03-22T00:06:47.504Z,33.01
2023-03-22T00:07:54.233Z,33.07
2023-03-22T00:08:56.029Z,33.05
2023-03-22T00:09:57.855Z,33.11
2023-03-22T00:10:59.692Z,33.20
2023-03-22T00:12:01.761Z,33.11
2023-03-22T00:13:06.428Z,33.16
2023-03-22T00:14:08.228Z,33.17
2023-03-22T00:15:11.206Z,33.06
2023-03-22T00:16:17.406Z,32.99
2023-03-22T00:17:19.278Z,33.09
2023-03-22T00:18:21.190Z,33.13
2023-03-22T00:19:23.221Z,33.21
2023-03-22T00:20:33.603Z,32.98
2023-03-22T00:21:35.761Z,32.98
2023-03-22T00:22:38.885Z,33.29
2023-03-22T00:23:41.097Z,33.04
2023-03-22T00:24:42.962Z,33.13
2023-03-22T00:25:46.788Z,33.05
2023-03-22T00:26:48.731Z,33.26
2023-03-22T00:27:50.702Z,33.14
2023-03-22T00:28:52.516Z,33.26
2023-03-22T00:29:54.374Z,33.04
2023-03-22T00:31:01.851Z,33.31
2023-03-22T00:32:04.354Z,33.20
2023-03-22T00:33:06.504Z,33.24
2023-03-22T00:34:08.536Z,33.26
2023-03-22T00:35:11.851Z,33.15
2023-03-22T00:36:13.693Z,33.07
2023-03-22T00:37:18.156Z,33.13
2023-03-22T00:38:27.218Z,33.07
2023-03-22T00:39:34.582Z,33.17
2023-03-22T00:40:36.424Z,32.93
2023-03-22T00:41:38.367Z,33.03
2023-03-22T00:42:41.801Z,33.39
2023-03-22T00:43:44.120Z,33.21
2023-03-22T00:44:45.903Z,32.93
2023-03-22T00:45:47.735Z,33.21
2023-03-22T00:46:49.630Z,33.03
2023-03-22T00:47:51.511Z,33.02
2023-03-22T00:48:53.395Z,33.08
2023-03-22T00:49:55.576Z,33.17
2023-03-22T00:50:57.836Z,33.12
2023-03-22T00:51:59.628Z,33.13
2023-03-22T00:53:01.902Z,33.21
2023-03-22T00:54:03.852Z,32.94
2023-03-22T00:55:06.400Z,33.21
2023-03-22T00:56:09.213Z,33.28
2023-03-22T00:57:12.896Z,33.05
2023-03-22T00:58:14.672Z,32.96
2023-03-22T00:59:16.878Z,33.29
2023-03-22T01:00:19.092Z,33.10
2023-03-22T01:01:20.898Z,33.03
2023-03-22T01:02:29.491Z,33.00
2023-03-22T01:03:31.307Z,33.28
2023-03-22T01:04:35.530Z,33.04
2023-03-22T01:05:37.768Z,33.21
2023-03-22T01:06:39.584Z,33.29
2023-03-22T01:07:44.882Z,33.02
2023-03-22T01:08:51.626Z,33.09
2023-03-22T01:09:53.562Z,33.04
2023-03-22T01:10:55.523Z,33.21
2023-03-22T01:11:58.285Z,33.21
2023-03-22T01:13:00.425Z,33.10
2023-03-22T01:14:02.274Z,33.13
2023-03-22T01:15:06.472Z,32.94
2023-03-22T01:16:09.959Z,33.31
2023-03-22T01:17:12.133Z,33.11
2023-03-22T01:18:13.933Z,33.24
2023-03-22T01:19:16.002Z,32.96
2023-03-22T01:20:18.042Z,32.97
2023-03-22T01:21:19.844Z,33.16
2023-03-22T01:22:21.724Z,33.25
2023-03-22T01:23:23.573Z,33.15
2023-03-22T01:24:25.640Z,33.21
2023-03-22T01:25:27.630Z,33.22
2023-03-22T01:26:29.476Z,32.99
2023-03-22T01:27:31.373Z,32.98
2023-03-22T01:28:33.208Z,33.24
2023-03-22T01:29:36.171Z,33.20
2023-03-22T01:30:41.099Z,32.89
2023-03-22T01:31:44.115Z,33.08
2023-03-22T01:32:46.011Z,33.22
2023-03-22T01:33:47.826Z,33.18
2023-03-22T01:34:49.715Z,33.04
2023-03-22T01:35:51.702Z,33.20
2023-03-22T01:36:54.508Z,33.26
2023-03-22T01:37:56.379Z,32.95
2023-03-22T01:38:58.201Z,33.01
2023-03-22T01:40:00.531Z,33.14
2023-03-22T01:41:02.475Z,32.95
2023-03-22T01:42:05.550Z,33.19
2023-03-22T01:43:15.600Z,33.01
2023-03-22T01:44:22.167Z,32.93
2023-03-22T01:45:40.470Z,33.05
2023-03-22T01:46:45.519Z,32.93
2023-03-22T01:48:03.367Z,33.21
2023-03-22T01:49:12.224Z,33.53
2023-03-22T01:50:17.112Z,33.14
2023-03-22T01:51:25.276Z,33.02
2023-03-22T01:52:27.849Z,32.94
2023-03-22T01:53:34.374Z,33.12
2023-03-22T01:54:45.298Z,33.09
2023-03-22T01:55:47.632Z,33.17
2023-03-22T01:56:51.061Z,33.20
2023-03-22T01:57:55.314Z,33.33
2023-03-22T01:58:57.673Z,32.97
2023-03-22T02:00:00.700Z,33.06
2023-03-22T02:01:04.916Z,33.00
2023-03-22T02:02:07.753Z,33.21
2023-03-22T02:03:13.077Z,33.05
2023-03-22T02:04:20.129Z,32.95
2023-03-22T02:05:22.567Z,33.00
2023-03-22T02:06:26.766Z,33.03
2023-03-22T02:07:28.859Z,33.00
2023-03-22T02:08:33.322Z,33.07
2023-03-22T02:09:42.558Z,33.24
2023-03-22T02:10:44.578Z,32.97
2023-03-22T02:12:36.737Z,33.02
2023-03-22T02:14:14.843Z,33.05
2023-03-22T02:15:55.788Z,33.11
2023-03-22T02:17:21.879Z,33.17
2023-03-22T02:18:51.417Z,33.17
2023-03-22T02:20:21.192Z,33.06
2023-03-22T02:22:04.302Z,32.90
2023-03-22T02:23:49.169Z,33.09
2023-03-22T02:25:20.474Z,32.94
2023-03-22T02:27:23.016Z,32.96
2023-03-22T02:28:42.783Z,33.01
2023-03-22T02:30:19.567Z,33.05
2023-03-22T02:32:22.592Z,33.05
2023-03-22T02:33:48.886Z,33.00
2023-03-22T02:35:26.411Z,33.21
2023-03-22T02:36:58.546Z,33.24
2023-03-22T02:38:48.039Z,33.10
2023-03-22T02:40:00.757Z,33.08
2023-03-22T02:41:32.698Z,33.29
2023-03-22T02:42:46.470Z,33.13
2023-03-22T02:44:07.424Z,33.23
2023-03-22T02:45:35.411Z,33.29
2023-03-22T02:47:13.601Z,33.10
2023-03-22T02:48:24.731Z,33.03
2023-03-22T02:49:53.342Z,33.15
2023-03-22T02:50:56.646Z,33.21
2023-03-22T02:52:24.518Z,33.39
2023-03-22T02:53:37.464Z,33.36
2023-03-22T02:54:57.562Z,33.36
2023-03-22T02:56:12.171Z,33.51
2023-03-22T02:57:25.124Z,33.29
2023-03-22T02:58:39.608Z,33.28
2023-03-22T02:59:43.769Z,33.29
2023-03-22T03:00:51.327Z,33.49
2023-03-22T03:01:58.902Z,33.10
2023-03-22T03:03:12.612Z,33.09
2023-03-22T03:04:26.108Z,33.44
2023-03-22T03:05:33.395Z,33.12
2023-03-22T03:06:41.138Z,33.37
2023-03-22T03:07:50.671Z,33.25
2023-03-22T03:08:57.860Z,33.39
2023-03-22T03:10:00.470Z,33.36
2023-03-22T03:11:02.411Z,33.40
2023-03-22T03:12:21.152Z,33.22
2023-03-22T03:13:23.005Z,33.32
2023-03-22T03:14:31.068Z,33.05
2023-03-22T03:15:33.235Z,33.33
2023-03-22T03:16:36.670Z,33.07
2023-03-22T03:18:09.063Z,33.16
2023-03-22T03:19:37.811Z,32.96
2023-03-22T03:21:06.724Z,33.11
2023-03-22T03:22:36.921Z,33.28
2023-03-22T03:23:49.594Z,33.35
2023-03-22T03:25:26.114Z,33.23
2023-03-22T03:27:10.678Z,32.99
2023-03-22T03:28:38.441Z,33.16
2023-03-22T03:29:47.319Z,33.04
2023-03-22T03:31:28.188Z,32.98
2023-03-22T03:32:37.965Z,32.97
2023-03-22T03:33:51.316Z,33.00
2023-03-22T03:35:01.569Z,33.13
2023-03-22T03:36:11.279Z,33.27
2023-03-22T03:37:23.940Z,33.33
2023-03-22T03:38:33.585Z,33.42
2023-03-22T03:40:05.152Z,33.24
2023-03-22T03:41:13.913Z,33.25
2023-03-22T03:42:18.527Z,33.38
2023-03-22T03:43:22.868Z,33.47
2023-03-22T03:44:25.024Z,33.35
2023-03-22T03:45:26.925Z,33.32
2023-03-22T03:46:29.738Z,33.21
2023-03-22T03:47:34.217Z,33.11
2023-03-22T03:48:39.618Z,33.31
2023-03-22T03:49:42.071Z,33.33
2023-03-22T03:50:44.334Z,33.10
2023-03-22T03:51:53.314Z,33.28
2023-03-22T03:52:56.109Z,33.42
2023-03-22T03:53:58.004Z,33.28
2023-03-22T03:54:59.846Z,33.41
2023-03-22T03:56:01.625Z,33.05
2023-03-22T03:57:04.228Z,33.05
2023-03-22T03:58:06.095Z,33.03
2023-03-22T03:59:09.075Z,33.05
2023-03-22T04:00:14.446Z,33.03
2023-03-22T04:01:19.537Z,33.56
2023-03-22T04:02:21.395Z,33.04
2023-03-22T04:03:23.278Z,33.11
2023-03-22T04:04:29.720Z,33.17
2023-03-22T04:05:31.943Z,33.27
2023-03-22T04:06:34.639Z,33.19
2023-03-22T04:07:36.701Z,33.09
2023-03-22T04:08:38.625Z,33.35
2023-03-22T04:09:41.224Z,33.34
2023-03-22T04:10:43.872Z,33.33
2023-03-22T04:11:45.969Z,32.86
2023-03-22T04:12:47.750Z,33.24
2023-03-22T04:13:49.606Z,33.05
2023-03-22T04:14:51.464Z,32.90
2023-03-22T04:15:58.010Z,33.31
2023-03-22T04:16:59.963Z,33.19
2023-03-22T04:18:01.940Z,33.30
2023-03-22T04:19:03.700Z,33.00
2023-03-22T04:20:09.600Z,33.29
2023-03-22T04:21:12.142Z,33.26
2023-03-22T04:22:18.476Z,33.24
2023-03-22T04:23:22.610Z,33.23
2023-03-22T04:24:24.493Z,33.25
2023-03-22T04:25:30.242Z,32.88
2023-03-22T04:26:33.420Z,33.22
2023-03-22T04:27:35.250Z,33.24
2023-03-22T04:28:37.066Z,33.08
2023-03-22T04:29:38.965Z,33.17
2023-03-22T04:30:40.993Z,33.13
2023-03-22T04:31:42.945Z,32.96
2023-03-22T04:32:51.193Z,33.04
2023-03-22T04:33:54.922Z,33.14
2023-03-22T04:34:56.814Z,33.04
2023-03-22T04:35:59.398Z,32.77
2023-03-22T04:37:02.608Z,32.80
2023-03-22T04:38:04.481Z,32.94
2023-03-22T04:39:11.449Z,33.02
2023-03-22T04:40:16.802Z,32.92
2023-03-22T04:41:18.898Z,33.20
2023-03-22T04:42:20.862Z,33.14
2023-03-22T04:43:22.951Z,33.06
2023-03-22T04:44:24.840Z,33.00
2023-03-22T04:45:29.143Z,32.96
2023-03-22T04:46:33.986Z,32.91
2023-03-22T04:47:35.856Z,33.10
2023-03-22T04:48:39.367Z,33.00
2023-03-22T04:49:41.808Z,32.82
2023-03-22T04:50:43.670Z,33.04
2023-03-22T04:51:45.785Z,33.16
2023-03-22T04:52:48.004Z,33.03
2023-03-22T04:53:49.806Z,33.06
2023-03-22T04:54:51.781Z,32.83
2023-03-22T04:55:58.237Z,33.19
2023-03-22T04:57:00.989Z,32.98
2023-03-22T04:58:03.106Z,33.06
2023-03-22T04:59:05.110Z,33.14
2023-03-22T05:00:10.936Z,33.09
2023-03-22T05:01:16.137Z,33.04
2023-03-22T05:02:18.021Z,32.96
2023-03-22T05:03:21.631Z,32.70
2023-03-22T05:04:23.542Z,33.16
2023-03-22T05:05:25.466Z,32.92
2023-03-22T05:06:27.400Z,32.90
2023-03-22T05:07:29.277Z,32.71
2023-03-22T05:08:31.523Z,33.09
2023-03-22T05:09:33.460Z,33.16
2023-03-22T05:10:39.762Z,32.96
2023-03-22T05:11:42.462Z,32.96
2023-03-22T05:12:44.337Z,33.10
2023-03-22T05:13:46.673Z,33.06
2023-03-22T05:14:48.540Z,32.70
2023-03-22T05:15:51.681Z,32.96
2023-03-22T05:16:53.566Z,33.02
2023-03-22T05:17:55.767Z,32.99
2023-03-22T05:18:57.670Z,32.89
2023-03-22T05:20:00.705Z,32.93
2023-03-22T05:21:03.896Z,33.10
2023-03-22T05:22:05.768Z,32.98
2023-03-22T05:23:09.792Z,32.76
2023-03-22T05:24:12.183Z,32.76
2023-03-22T05:25:13.996Z,32.72
2023-03-22T05:26:16.613Z,32.90
2023-03-22T05:27:30.177Z,32.82
2023-03-22T05:28:31.965Z,32.55
2023-03-22T05:29:36.864Z,32.71
2023-03-22T05:30:39.046Z,33.01
2023-03-22T05:31:41.195Z,32.68
2023-03-22T05:32:43.975Z,32.86
2023-03-22T05:33:46.608Z,32.65
2023-03-22T05:34:48.436Z,32.52
2023-03-22T05:35:51.132Z,32.57
2023-03-22T05:36:53.013Z,32.72
2023-03-22T05:37:54.907Z,32.70
2023-03-22T05:38:57.811Z,32.62
2023-03-22T05:39:59.640Z,32.65
2023-03-22T05:41:01.496Z,32.77
2023-03-22T05:42:03.642Z,32.63
2023-03-22T05:43:05.725Z,32.67
2023-03-22T05:44:08.143Z,32.35
2023-03-22T05:45:11.804Z,32.77
2023-03-22T05:46:13.738Z,32.52
2023-03-22T05:47:16.014Z,32.48
2023-03-22T05:48:17.827Z,32.44
2023-03-22T05:49:19.777Z,32.44
2023-03-22T05:50:24.288Z,32.38
2023-03-22T05:51:27.405Z,32.45
2023-03-22T05:52:29.246Z,32.61
2023-03-22T05:53:31.855Z,32.45
2023-03-22T05:54:33.665Z,32.46
2023-03-22T05:55:35.466Z,32.47
2023-03-22T05:56:37.325Z,32.53
2023-03-22T05:57:40.808Z,32.65
2023-03-22T05:58:42.869Z,32.45
2023-03-22T05:59:44.690Z,32.70
2023-03-22T06:00:49.947Z,32.49
2023-03-22T06:01:51.893Z,32.55
2023-03-22T06:02:56.294Z,32.46
2023-03-22T06:03:58.179Z,32.67
2023-03-22T06:04:59.935Z,32.35
2023-03-22T06:06:02.006Z,32.65
2023-03-22T06:07:03.829Z,32.48
2023-03-22T06:08:05.642Z,32.45
2023-03-22T06:09:16.801Z,32.44
2023-03-22T06:10:19.391Z,32.27
2023-03-22T06:11:22.584Z,32.66
2023-03-22T06:12:27.215Z,32.51
2023-03-22T06:13:30.520Z,32.53
2023-03-22T06:14:32.378Z,32.68
2023-03-22T06:15:34.205Z,32.59
2023-03-22T06:16:36.169Z,32.60
2023-03-22T06:17:38.532Z,32.76
2023-03-22T06:18:40.351Z,32.61
2023-03-22T06:19:42.264Z,32.81
2023-03-22T06:20:44.256Z,32.42
2023-03-22T06:21:46.080Z,32.78
2023-03-22T06:22:47.921Z,32.59
2023-03-22T06:23:49.884Z,32.50
2023-03-22T06:24:51.752Z,32.57
2023-03-22T06:25:53.641Z,32.46
2023-03-22T06:26:55.510Z,32.71
2023-03-22T06:27:57.446Z,32.56
2023-03-22T06:28:59.374Z,32.68
2023-03-22T06:30:01.251Z,32.88
2023-03-22T06:31:10.459Z,32.54
2023-03-22T06:32:12.329Z,32.55
2023-03-22T06:33:14.139Z,32.59
2023-03-22T06:34:15.947Z,32.52
2023-03-22T06:35:17.864Z,32.50
2023-03-22T06:36:19.659Z,32.52
2023-03-22T06:37:22.889Z,32.50
2023-03-22T06:38:24.777Z,32.45
2023-03-22T06:39:26.985Z,32.70
2023-03-22T06:40:29.068Z,32.55
2023-03-22T06:41:31.222Z,32.69
2023-03-22T06:42:33.790Z,32.48
2023-03-22T06:43:35.896Z,32.47
2023-03-22T06:44:37.773Z,32.29
2023-03-22T06:45:39.718Z,32.70
2023-03-22T06:46:41.896Z,32.51
2023-03-22T06:47:44.555Z,32.22
2023-03-22T06:48:46.576Z,32.49
2023-03-22T06:49:48.519Z,32.31
2023-03-22T06:50:50.534Z,32.50
2023-03-22T06:51:52.643Z,32.27
2023-03-22T06:52:54.920Z,32.43
2023-03-22T06:53:57.819Z,32.43
2023-03-22T06:54:59.657Z,32.51
2023-03-22T06:56:01.469Z,32.65
2023-03-22T06:57:03.559Z,32.59
2023-03-22T06:58:05.791Z,32.47
2023-03-22T06:59:07.802Z,32.42
2023-03-22T07:00:10.713Z,32.46
2023-03-22T07:01:12.630Z,32.34
2023-03-22T07:02:14.574Z,32.45
2023-03-22T07:03:16.598Z,32.27
2023-03-22T07:04:19.988Z,32.53
2023-03-22T07:05:22.029Z,32.45
2023-03-22T07:06:23.939Z,32.46
2023-03-22T07:07:25.809Z,32.41
2023-03-22T07:08:27.579Z,32.30
2023-03-22T07:09:29.459Z,32.60
2023-03-22T07:10:31.286Z,32.33
2023-03-22T07:11:33.124Z,32.25
2023-03-22T07:12:35.737Z,32.67
2023-03-22T07:13:37.668Z,32.33
2023-03-22T07:14:39.627Z,32.48
2023-03-22T07:15:41.709Z,32.42
2023-03-22T07:16:43.640Z,32.84
2023-03-22T07:17:45.503Z,32.85
2023-03-22T07:18:48.220Z,32.80
2023-03-22T07:19:50.077Z,32.68
2023-03-22T07:20:52.462Z,32.61
2023-03-22T07:21:54.253Z,32.84
2023-03-22T07:22:56.290Z,32.89
2023-03-22T07:23:58.218Z,33.27
2023-03-22T07:25:01.857Z,33.27
2023-03-22T07:26:04.051Z,32.79
2023-03-22T07:27:06.089Z,32.87
2023-03-22T07:28:07.980Z,33.04
2023-03-22T07:29:10.034Z,32.87
2023-03-22T07:30:12.800Z,32.56
2023-03-22T07:31:16.406Z,32.72
2023-03-22T07:32:18.204Z,32.73
2023-03-22T07:33:20.225Z,32.79
2023-03-22T07:34:22.246Z,32.60
2023-03-22T07:35:26.647Z,32.84
2023-03-22T07:36:29.246Z,32.75
2023-03-22T07:37:31.230Z,32.57
2023-03-22T07:38:33.171Z,32.69
2023-03-22T07:39:35.375Z,32.57
2023-03-22T07:40:37.403Z,32.56
2023-03-22T07:41:40.191Z,32.38
2023-03-22T07:42:42.062Z,32.61
2023-03-22T07:43:55.257Z,32.32
2023-03-22T07:44:58.604Z,32.53
2023-03-22T07:46:00.738Z,32.68
2023-03-22T07:47:02.683Z,32.25
2023-03-22T07:48:04.857Z,32.38
2023-03-22T07:49:06.712Z,32.36
2023-03-22T07:50:12.336Z,32.33
2023-03-22T07:51:14.210Z,32.23
2023-03-22T07:52:16.015Z,32.44
2023-03-22T07:53:17.876Z,32.15
2023-03-22T07:54:32.475Z,32.34
2023-03-22T07:55:34.763Z,32.23
2023-03-22T07:56:36.720Z,32.40
2023-03-22T07:57:38.830Z,32.31
2023-03-22T07:58:41.028Z,32.18
2023-03-22T07:59:44.186Z,32.48
2023-03-22T08:00:46.017Z,32.46
2023-03-22T08:01:47.890Z,32.35
2023-03-22T08:02:49.803Z,32.48
2023-03-22T08:03:51.661Z,32.18
2023-03-22T08:04:56.460Z,32.13
2023-03-22T08:06:07.313Z,32.16
2023-03-22T08:07:10.097Z,32.14
2023-03-22T08:08:13.468Z,32.48
2023-03-22T08:09:15.594Z,32.47
2023-03-22T08:10:17.807Z,32.32
2023-03-22T08:11:19.663Z,32.31
2023-03-22T08:12:21.460Z,32.34
2023-03-22T08:13:23.598Z,32.25
2023-03-22T08:14:35.872Z,32.27
2023-03-22T08:15:39.037Z,32.27
2023-03-22T08:16:43.276Z,32.36
2023-03-22T08:17:45.310Z,32.30
2023-03-22T08:18:47.282Z,32.17
2023-03-22T08:19:49.931Z,32.22
2023-03-22T08:20:58.082Z,32.11
2023-03-22T08:21:59.878Z,32.15
2023-03-22T08:23:01.912Z,32.10
2023-03-22T08:24:05.278Z,32.16
2023-03-22T08:25:07.496Z,32.31
2023-03-22T08:26:11.148Z,32.21
2023-03-22T08:27:14.151Z,32.13
2023-03-22T08:28:16.647Z,31.99
2023-03-22T08:29:19.803Z,31.91
2023-03-22T08:30:22.327Z,31.88
2023-03-22T08:31:24.235Z,32.09
2023-03-22T08:32:26.275Z,32.10
2023-03-22T08:33:28.688Z,32.13
2023-03-22T08:34:31.348Z,31.82
2023-03-22T08:35:34.845Z,31.98
2023-03-22T08:36:38.161Z,31.89
2023-03-22T08:37:40.263Z,31.86
2023-03-22T08:38:45.382Z,31.88
2023-03-22T08:39:47.908Z,31.94
2023-03-22T08:40:49.790Z,31.93
2023-03-22T08:41:51.662Z,32.01
2023-03-22T08:42:54.073Z,31.82
2023-03-22T08:43:56.137Z,31.96
2023-03-22T08:44:57.904Z,31.79
2023-03-22T08:45:59.841Z,31.87
2023-03-22T08:47:03.119Z,32.11
2023-03-22T08:48:05.288Z,32.27
2023-03-22T08:49:07.216Z,32.25
2023-03-22T08:50:11.254Z,32.09
2023-03-22T08:51:13.031Z,32.47
2023-03-22T08:52:14.887Z,32.33
2023-03-22T08:53:16.689Z,32.27
2023-03-22T08:54:18.976Z,32.29
2023-03-22T08:55:20.850Z,32.09
2023-03-22T08:56:24.788Z,32.04
2023-03-22T08:57:27.656Z,32.09
2023-03-22T08:58:29.853Z,32.03
2023-03-22T08:59:31.645Z,31.89
2023-03-22T09:00:45.981Z,31.86
2023-03-22T09:01:50.448Z,31.86
2023-03-22T09:02:52.261Z,31.62
2023-03-22T09:03:54.143Z,31.89
2023-03-22T09:04:56.190Z,31.76
2023-03-22T09:05:58.028Z,31.93
2023-03-22T09:06:59.845Z,31.73
2023-03-22T09:08:06.807Z,31.77
2023-03-22T09:09:08.698Z,31.83
2023-03-22T09:10:11.855Z,31.49
2023-03-22T09:11:14.624Z,31.62
2023-03-22T09:12:17.295Z,31.59
2023-03-22T09:13:20.568Z,31.53
2023-03-22T09:14:22.412Z,31.67
2023-03-22T09:15:24.334Z,31.65
2023-03-22T09:16:26.189Z,31.47
2023-03-22T09:17:28.080Z,31.67
2023-03-22T09:18:30.095Z,31.53
2023-03-22T09:19:32.182Z,31.53
2023-03-22T09:20:34.647Z,31.56
2023-03-22T09:21:36.423Z,31.67
2023-03-22T09:22:38.386Z,31.53
2023-03-22T09:23:40.530Z,31.56
2023-03-22T09:24:42.512Z,31.54
2023-03-22T09:25:46.438Z,31.64
2023-03-22T09:26:48.366Z,31.57
2023-03-22T09:27:50.354Z,31.56
2023-03-22T09:28:52.422Z,31.45
2023-03-22T09:29:54.202Z,31.45
2023-03-22T09:31:05.307Z,31.41
2023-03-22T09:32:07.184Z,31.48
2023-03-22T09:33:09.457Z,31.37
2023-03-22T09:34:11.225Z,31.40
2023-03-22T09:35:13.072Z,31.42
2023-03-22T09:36:16.596Z,31.43
2023-03-22T09:37:20.328Z,31.50
2023-03-22T09:38:22.438Z,31.45
2023-03-22T09:39:24.611Z,31.60
2023-03-22T09:40:34.881Z,31.41
2023-03-22T09:41:54.409Z,31.27
2023-03-22T09:43:02.198Z,31.71
2023-03-22T09:44:12.338Z,31.56
2023-03-22T09:45:22.952Z,31.33
2023-03-22T09:46:31.692Z,31.73
2023-03-22T09:48:15.548Z,31.50
2023-03-22T09:49:26.412Z,31.61
2023-03-22T09:50:33.383Z,31.64
2023-03-22T09:51:42.115Z,31.70
2023-03-22T09:52:44.965Z,31.98
2023-03-22T09:53:46.801Z,31.55
2023-03-22T09:54:50.421Z,31.57
2023-03-22T09:56:23.117Z,31.51
2023-03-22T09:57:37.386Z,31.33
2023-03-22T09:59:11.276Z,31.40
2023-03-22T10:00:37.561Z,31.28
2023-03-22T10:01:57.157Z,31.53
2023-03-22T10:03:24.565Z,31.09
2023-03-22T10:04:47.250Z,31.21
2023-03-22T10:06:07.345Z,31.27
2023-03-22T10:08:21.334Z,31.16
2023-03-22T10:09:46.861Z,31.28
2023-03-22T10:10:51.911Z,31.11
2023-03-22T10:12:20.215Z,31.42
2023-03-22T10:13:53.469Z,31.28
2023-03-22T10:15:11.617Z,31.36
2023-03-22T10:16:27.866Z,31.34
2023-03-22T10:17:30.646Z,31.38
2023-03-22T10:18:47.098Z,31.37
2023-03-22T10:20:00.743Z,31.58
2023-03-22T10:21:06.979Z,31.37
2023-03-22T10:22:16.411Z,31.62
2023-03-22T10:23:30.561Z,31.29
2023-03-22T10:24:38.177Z,31.38
2023-03-22T10:25:43.083Z,31.45
2023-03-22T10:26:49.328Z,31.44
2023-03-22T10:27:52.566Z,31.41
2023-03-22T10:29:04.021Z,31.47
2023-03-22T10:30:30.573Z,31.49
2023-03-22T10:31:34.505Z,31.83
2023-03-22T10:33:04.030Z,31.70
2023-03-22T10:34:17.049Z,31.72
2023-03-22T10:35:19.166Z,31.92
2023-03-22T10:36:27.442Z,32.10
2023-03-22T10:37:37.587Z,31.88
2023-03-22T10:38:49.606Z,31.92
2023-03-22T10:39:55.844Z,32.18
2023-03-22T10:41:00.182Z,31.90
2023-03-22T10:42:15.486Z,31.80
2023-03-22T10:43:37.985Z,31.49
2023-03-22T10:44:56.191Z,31.57
2023-03-22T10:46:01.263Z,31.52
2023-03-22T10:47:08.112Z,31.47
2023-03-22T10:48:19.874Z,31.72
2023-03-22T10:49:35.868Z,31.43
2023-03-22T10:50:43.205Z,31.46
2023-03-22T10:51:54.429Z,31.43
2023-03-22T10:53:29.886Z,31.38
2023-03-22T10:54:32.773Z,31.42
2023-03-22T10:55:41.821Z,31.46
2023-03-22T10:56:45.059Z,31.37
2023-03-22T10:58:08.632Z,31.57
2023-03-22T10:59:52.646Z,31.69
2023-03-22T11:00:59.777Z,31.44
2023-03-22T11:02:02.075Z,31.53
2023-03-22T11:03:07.122Z,31.94
2023-03-22T11:04:14.201Z,31.38
2023-03-22T11:05:27.259Z,31.81
2023-03-22T11:06:36.964Z,31.66
2023-03-22T11:07:44.363Z,32.01
2023-03-22T11:08:58.937Z,32.02
2023-03-22T11:10:34.786Z,32.00
2023-03-22T11:11:55.983Z,31.97
2023-03-22T11:13:17.142Z,31.63
2023-03-22T11:14:30.680Z,31.54
2023-03-22T11:15:35.996Z,31.70
2023-03-22T11:16:53.724Z,32.03
2023-03-22T11:18:04.602Z,31.96
2023-03-22T11:19:06.949Z,31.97
2023-03-22T11:20:17.662Z,32.08
2023-03-22T11:21:27.987Z,32.28
2023-03-22T11:22:40.974Z,32.12
2023-03-22T11:23:55.874Z,31.82
2023-03-22T11:25:00.093Z,32.00
2023-03-22T11:26:14.398Z,32.09
2023-03-22T11:27:25.364Z,31.30
2023-03-22T11:28:37.034Z,30.78
2023-03-22T11:29:57.313Z,30.40
2023-03-22T11:31:12.299Z,29.98
2023-03-22T11:32:37.610Z,29.64
2023-03-22T11:33:59.266Z,29.12
2023-03-22T11:35:18.639Z,28.94
2023-03-22T11:36:20.558Z,28.97
2023-03-22T11:37:22.405Z,28.70
2023-03-22T11:38:42.012Z,28.59
2023-03-22T11:39:49.365Z,28.47
2023-03-22T11:41:00.357Z,28.39
2023-03-22T11:42:06.448Z,28.29
2023-03-22T11:43:19.351Z,28.54
2023-03-22T11:44:23.074Z,28.98
2023-03-22T11:45:41.056Z,29.19
2023-03-22T11:47:00.609Z,29.62
2023-03-22T11:48:14.740Z,29.93
2023-03-22T11:49:18.582Z,29.70
2023-03-22T11:50:32.446Z,29.91
2023-03-22T11:51:39.038Z,30.00
2023-03-22T11:52:48.482Z,30.09
2023-03-22T11:53:50.328Z,30.23
2023-03-22T11:54:54.554Z,30.31
2023-03-22T11:55:57.808Z,30.25
2023-03-22T11:57:04.719Z,30.31
2023-03-22T11:58:07.061Z,30.38
2023-03-22T11:59:38.442Z,30.38
2023-03-22T12:00:42.804Z,30.19
2023-03-22T12:02:10.752Z,30.10
2023-03-22T12:03:19.936Z,30.26
2023-03-22T12:04:29.779Z,30.18
2023-03-22T12:05:40.320Z,30.31
2023-03-22T12:06:43.438Z,30.41
2023-03-22T12:07:51.133Z,30.35
2023-03-22T12:09:00.766Z,30.34
2023-03-22T12:10:22.867Z,30.28
2023-03-22T12:11:43.678Z,30.31
2023-03-22T12:13:31.258Z,30.57
2023-03-22T12:14:57.335Z,30.40
2023-03-22T12:16:06.076Z,30.67
2023-03-22T12:17:36.610Z,30.64
2023-03-22T12:19:09.190Z,30.75
2023-03-22T12:20:40.682Z,30.72
2023-03-22T12:21:46.224Z,30.87
2023-03-22T12:22:54.199Z,30.60
2023-03-22T12:24:01.246Z,31.17
2023-03-22T12:25:04.912Z,30.72
2023-03-22T12:26:17.383Z,31.45
2023-03-22T12:27:36.380Z,31.10
2023-03-22T12:28:56.340Z,31.49
2023-03-22T12:30:51.485Z,31.04
2023-03-22T12:32:27.253Z,31.36
2023-03-22T12:33:43.338Z,31.21
2023-03-22T12:34:55.133Z,31.09
2023-03-22T12:36:06.968Z,31.21
2023-03-22T12:37:19.409Z,30.97
2023-03-22T12:38:41.099Z,31.19
2023-03-22T12:39:53.753Z,31.21
2023-03-22T12:41:02.798Z,31.11
2023-03-22T12:42:24.138Z,30.81
2023-03-22T12:44:01.693Z,30.98
2023-03-22T12:45:13.879Z,30.97
2023-03-22T12:46:47.570Z,30.62
2023-03-22T12:48:10.362Z,30.10
2023-03-22T12:49:36.609Z,30.33
2023-03-22T12:50:57.974Z,29.96
2023-03-22T12:52:19.574Z,29.90
2023-03-22T12:53:28.157Z,29.78
2023-03-22T12:54:30.594Z,30.09
2023-03-22T12:55:40.389Z,29.86
2023-03-22T12:56:46.406Z,29.96
2023-03-22T12:57:52.278Z,30.25
2023-03-22T12:59:03.573Z,30.25
2023-03-22T13:00:16.070Z,30.23
2023-03-22T13:01:29.112Z,30.02
2023-03-22T13:02:35.710Z,30.33
2023-03-22T13:03:46.894Z,30.54
2023-03-22T13:04:58.696Z,30.85
2023-03-22T13:06:27.377Z,30.79
2023-03-22T13:07:37.379Z,30.56
2023-03-22T13:09:21.412Z,30.78
2023-03-22T13:10:36.753Z,30.39
2023-03-22T13:11:38.886Z,30.39
2023-03-22T13:12:40.700Z,30.82
2023-03-22T13:13:46.902Z,31.02
2023-03-22T13:14:56.782Z,30.65
2023-03-22T13:16:09.824Z,30.84
2023-03-22T13:17:11.865Z,30.80
2023-03-22T13:18:37.689Z,30.68
2023-03-22T13:19:53.610Z,30.45
2023-03-22T13:21:19.195Z,30.13
2023-03-22T13:22:49.868Z,29.80
2023-03-22T13:24:01.115Z,30.24
2023-03-22T13:25:16.934Z,29.95
2023-03-22T13:26:22.511Z,29.92
2023-03-22T13:27:35.522Z,29.71
2023-03-22T13:28:38.055Z,29.62
2023-03-22T13:29:41.826Z,29.95
2023-03-22T13:30:56.501Z,29.99
2023-03-22T13:32:25.898Z,29.85
2023-03-22T13:33:36.638Z,29.48
2023-03-22T13:34:46.656Z,30.01
2023-03-22T13:36:30.266Z,29.66
2023-03-22T13:37:49.095Z,29.46
2023-03-22T13:39:08.074Z,29.24
2023-03-22T13:40:43.128Z,29.45
2023-03-22T13:41:59.770Z,29.75
2023-03-22T13:43:27.045Z,29.66
2023-03-22T13:44:39.868Z,29.39
2023-03-22T13:46:04.259Z,29.36
2023-03-22T13:47:30.014Z,29.44
2023-03-22T13:48:49.275Z,28.87
2023-03-22T13:50:28.164Z,29.06
2023-03-22T13:51:32.173Z,29.09
2023-03-22T13:52:57.105Z,29.37
2023-03-22T13:54:13.964Z,29.24
2023-03-22T13:55:46.990Z,29.59
2023-03-22T13:57:01.568Z,29.52
2023-03-22T13:58:09.000Z,29.29
2023-03-22T13:59:27.144Z,29.52
2023-03-22T14:00:32.048Z,29.74
2023-03-22T14:01:45.037Z,29.46
2023-03-22T14:02:48.726Z,29.41
2023-03-22T14:03:52.029Z,29.53
2023-03-22T14:05:14.669Z,29.82
2023-03-22T14:06:31.811Z,29.28
2023-03-22T14:07:50.790Z,29.46
2023-03-22T14:09:04.454Z,29.92
2023-03-22T14:10:24.489Z,29.89
2023-03-22T14:11:39.389Z,29.85
2023-03-22T14:12:47.083Z,29.66
2023-03-22T14:14:24.498Z,29.96
2023-03-22T14:15:37.448Z,29.80
2023-03-22T14:16:51.318Z,29.69
2023-03-22T14:18:06.737Z,29.84
2023-03-22T14:19:28.040Z,29.93
2023-03-22T14:20:39.822Z,29.92
